Time;durP1;ratioP1;P1;durP2;ratioP2;P2;SDS_P1;SDS_P2;PMS_P1;PMS_P2;Temp;Humidity;BMP_temperature;BMP_pressure;BME280_temperature;BME280_humidity;BME280_pressure;Samples;Min_cycle;Max_cycle;Signal;HPM_P1;HPM_P2
2023/05/31 00:00:18;;;;;;;18.30;13.40;;;22.50;39.10;;;;;;5002688;28;20483;-80
2023/05/31 00:02:46;;;;;;;19.07;12.93;;;22.50;39.30;;;;;;5002737;28;20919;-81
2023/05/31 00:05:14;;;;;;;20.43;13.40;;;22.50;39.40;;;;;;5003231;28;20466;-80
2023/05/31 00:07:42;;;;;;;18.23;13.30;;;22.40;39.50;;;;;;5001552;28;20449;-81
2023/05/31 00:10:12;;;;;;;16.77;13.80;;;22.40;39.60;;;;;;5007309;28;20424;-82
2023/05/31 00:12:40;;;;;;;17.50;13.37;;;22.40;39.80;;;;;;5006620;28;20532;-81
2023/05/31 00:15:09;;;;;;;17.30;12.40;;;22.40;40.00;;;;;;5008661;28;20456;-81
2023/05/31 00:17:37;;;;;;;16.33;13.10;;;22.40;40.00;;;;;;5003226;28;20462;-82
2023/05/31 00:20:09;;;;;;;17.53;12.97;;;22.30;40.10;;;;;;4995340;28;20449;-80
2023/05/31 00:22:37;;;;;;;17.30;12.70;;;22.30;40.20;;;;;;5003319;28;20419;-80
2023/05/31 00:25:06;;;;;;;15.97;12.27;;;22.30;40.20;;;;;;5007120;28;20440;-80
2023/05/31 00:27:36;;;;;;;17.17;11.60;;;22.30;40.50;;;;;;5005277;28;20449;-80
2023/05/31 00:30:05;;;;;;;18.60;12.50;;;22.30;40.40;;;;;;4998672;28;20934;-81
2023/05/31 00:32:33;;;;;;;16.13;11.63;;;22.30;40.60;;;;;;5002071;28;20429;-80
2023/05/31 00:35:01;;;;;;;15.47;11.30;;;22.30;40.80;;;;;;5004878;28;20540;-80
2023/05/31 00:37:29;;;;;;;15.77;11.07;;;22.30;40.80;;;;;;4998654;28;20490;-81
2023/05/31 00:39:57;;;;;;;13.93;10.50;;;22.20;41.40;;;;;;5002444;28;20456;-80
2023/05/31 00:42:25;;;;;;;14.40;11.00;;;22.20;40.90;;;;;;5004851;28;20453;-80
2023/05/31 00:44:55;;;;;;;14.87;10.70;;;22.20;41.00;;;;;;5005267;28;20460;-80
2023/05/31 00:47:24;;;;;;;15.00;11.20;;;22.20;41.40;;;;;;5003613;28;20452;-80
2023/05/31 00:49:52;;;;;;;14.13;10.50;;;22.20;41.10;;;;;;4998871;28;20440;-81
2023/05/31 00:52:19;;;;;;;13.97;10.70;;;22.20;41.80;;;;;;4995851;28;20453;-81
2023/05/31 00:54:47;;;;;;;13.70;10.00;;;22.20;41.30;;;;;;4995297;28;21066;-81
2023/05/31 00:57:15;;;;;;;14.07;10.13;;;22.10;41.30;;;;;;5003252;28;20516;-81
2023/05/31 00:59:43;;;;;;;14.23;10.37;;;22.10;41.30;;;;;;5006652;28;20439;-81
2023/05/31 01:02:12;;;;;;;14.30;9.77;;;22.10;41.50;;;;;;5010058;28;20468;-81
2023/05/31 01:04:41;;;;;;;12.67;9.47;;;22.10;41.60;;;;;;4998966;28;20477;-81
2023/05/31 01:07:09;;;;;;;14.90;10.17;;;22.00;41.60;;;;;;5011212;28;20472;-81
2023/05/31 01:09:42;;;;;;;12.33;9.20;;;22.00;41.60;;;;;;5005488;28;20497;-81
2023/05/31 01:12:14;;;;;;;17.37;9.13;;;22.00;41.70;;;;;;5006932;28;20446;-81
2023/05/31 01:14:47;;;;;;;11.30;9.00;;;22.00;41.70;;;;;;4999688;28;20473;-80
2023/05/31 01:17:22;;;;;;;10.63;8.63;;;22.00;41.80;;;;;;5004297;28;20481;-79
2023/05/31 01:23:46;;;;;;;12.60;8.73;;;21.90;41.90;;;;;;5000832;28;20387;-80
2023/05/31 01:26:39;;;;;;;8.93;7.90;;;21.90;42.10;;;;;;5001390;28;20483;-81
2023/05/31 01:29:09;;;;;;;10.67;7.87;;;21.90;42.10;;;;;;5002643;28;20449;-81
2023/05/31 01:31:37;;;;;;;11.83;7.90;;;21.80;42.20;;;;;;5003180;28;20516;-82
2023/05/31 01:34:06;;;;;;;9.03;7.83;;;21.90;42.30;;;;;;5003109;28;20420;-83
2023/05/31 01:36:34;;;;;;;10.83;8.40;;;21.80;42.30;;;;;;5003344;28;20506;-81
2023/05/31 01:39:03;;;;;;;10.37;7.60;;;21.80;42.20;;;;;;5002893;28;20462;-81
2023/05/31 01:41:31;;;;;;;12.53;7.40;;;21.80;42.40;;;;;;5002073;28;20443;-80
2023/05/31 01:44:01;;;;;;;8.50;7.30;;;21.80;42.40;;;;;;5003426;28;20420;-80
2023/05/31 01:46:29;;;;;;;9.80;7.83;;;21.70;42.40;;;;;;5004983;28;20500;-80
2023/05/31 01:48:57;;;;;;;8.40;7.07;;;21.80;42.60;;;;;;5003352;28;20454;-80
2023/05/31 01:51:25;;;;;;;8.60;6.80;;;21.80;42.60;;;;;;4996788;28;20465;-80
2023/05/31 01:53:53;;;;;;;7.53;6.73;;;21.80;42.60;;;;;;5002452;28;20437;-80
2023/05/31 01:56:21;;;;;;;9.63;6.90;;;21.70;42.60;;;;;;5001314;28;20477;-81
2023/05/31 01:58:50;;;;;;;8.40;6.60;;;21.70;42.60;;;;;;5001010;28;20449;-80
2023/05/31 02:01:19;;;;;;;7.83;6.30;;;21.70;42.70;;;;;;5000222;28;20468;-81
2023/05/31 02:03:49;;;;;;;6.93;6.13;;;21.70;42.60;;;;;;4999432;28;20445;-79
2023/05/31 02:06:18;;;;;;;13.00;6.97;;;21.70;42.80;;;;;;4996869;28;20472;-80
2023/05/31 02:08:46;;;;;;;7.80;6.60;;;21.60;42.80;;;;;;4992335;28;20450;-80
2023/05/31 02:11:14;;;;;;;9.00;6.07;;;21.60;42.80;;;;;;4982111;28;20560;-80
2023/05/31 02:13:42;;;;;;;8.50;6.57;;;21.60;42.90;;;;;;4989846;28;20461;-80
2023/05/31 02:16:10;;;;;;;8.73;6.83;;;21.60;43.00;;;;;;4993597;28;20487;-80
2023/05/31 02:18:40;;;;;;;6.97;5.87;;;21.50;43.10;;;;;;4994011;28;20452;-80
2023/05/31 02:21:08;;;;;;;7.83;5.90;;;21.50;43.10;;;;;;4993125;28;20495;-80
2023/05/31 02:23:37;;;;;;;7.00;5.67;;;21.60;43.10;;;;;;4978429;28;20420;-79
2023/05/31 02:26:05;;;;;;;6.40;5.50;;;21.50;43.10;;;;;;4976347;28;20495;-81
2023/05/31 02:28:33;;;;;;;6.93;6.23;;;21.50;43.10;;;;;;4976415;28;20454;-79
2023/05/31 02:31:01;;;;;;;10.30;5.63;;;21.50;43.20;;;;;;4990989;28;20509;-80
2023/05/31 02:33:30;;;;;;;5.93;5.33;;;21.50;43.30;;;;;;4974186;28;20457;-80
2023/05/31 02:36:00;;;;;;;6.40;5.50;;;21.50;43.30;;;;;;4991591;28;20481;-80
2023/05/31 02:38:28;;;;;;;6.70;5.60;;;21.40;43.20;;;;;;4993703;28;20465;-80
2023/05/31 02:40:56;;;;;;;7.53;5.10;;;21.40;43.50;;;;;;4991934;28;20507;-81
2023/05/31 02:43:23;;;;;;;6.10;5.50;;;21.40;43.50;;;;;;4994130;28;20480;-80
2023/05/31 02:45:51;;;;;;;6.00;5.33;;;21.50;43.50;;;;;;4986016;28;20458;-81
2023/05/31 02:48:19;;;;;;;9.00;5.50;;;21.40;43.40;;;;;;4987134;28;20445;-81
2023/05/31 02:50:47;;;;;;;9.97;5.87;;;21.40;43.40;;;;;;4993775;28;20500;-81
2023/05/31 02:53:17;;;;;;;5.80;5.20;;;21.40;43.60;;;;;;4989344;28;20500;-80
2023/05/31 02:55:45;;;;;;;5.40;4.90;;;21.40;43.60;;;;;;4994082;28;20469;-81
2023/05/31 02:58:14;;;;;;;5.63;5.13;;;21.30;43.40;;;;;;4994251;28;20437;-80
2023/05/31 03:00:43;;;;;;;6.37;4.77;;;21.30;43.60;;;;;;4993315;28;20570;-83
2023/05/31 03:03:12;;;;;;;5.57;5.07;;;21.30;43.70;;;;;;5006450;28;20476;-81
2023/05/31 03:05:40;;;;;;;6.10;5.03;;;21.30;43.70;;;;;;5007193;28;20540;-83
2023/05/31 03:08:08;;;;;;;4.90;4.50;;;21.30;43.80;;;;;;5006216;28;20420;-82
2023/05/31 03:10:38;;;;;;;5.33;4.83;;;21.20;43.70;;;;;;5006734;28;20453;-79
2023/05/31 03:13:06;;;;;;;4.67;4.27;;;21.30;43.80;;;;;;5005112;28;20444;-80
2023/05/31 03:15:35;;;;;;;8.10;4.60;;;21.30;43.80;;;;;;5011775;28;20469;-80
2023/05/31 03:18:04;;;;;;;5.40;4.73;;;21.30;43.80;;;;;;5004714;28;20477;-81
2023/05/31 03:20:33;;;;;;;5.77;4.80;;;21.30;44.00;;;;;;5009167;28;20493;-81
2023/05/31 03:23:01;;;;;;;5.90;5.03;;;21.20;43.90;;;;;;5010304;28;20529;-81
2023/05/31 03:25:30;;;;;;;6.97;4.47;;;21.20;43.90;;;;;;5009634;28;20468;-81
2023/05/31 03:28:00;;;;;;;4.60;4.20;;;21.20;43.80;;;;;;5002145;28;20445;-82
2023/05/31 03:30:28;;;;;;;5.37;4.53;;;21.20;43.90;;;;;;5003583;28;20441;-81
2023/05/31 03:32:57;;;;;;;5.93;4.40;;;21.20;44.00;;;;;;5010435;28;20441;-81
2023/05/31 03:35:25;;;;;;;6.50;4.93;;;21.20;44.00;;;;;;5000998;28;20485;-83
2023/05/31 03:37:53;;;;;;;4.87;4.43;;;21.20;44.10;;;;;;5008489;28;20495;-82
2023/05/31 03:40:21;;;;;;;5.97;4.80;;;21.20;44.00;;;;;;4998440;28;20464;-81
2023/05/31 03:42:49;;;;;;;4.53;4.17;;;21.20;44.10;;;;;;5000673;28;20437;-81
2023/05/31 03:45:19;;;;;;;4.63;4.13;;;21.20;44.00;;;;;;5010837;28;20472;-83
2023/05/31 03:47:47;;;;;;;4.90;4.07;;;21.20;44.10;;;;;;5009071;28;20441;-81
2023/05/31 03:50:15;;;;;;;5.40;4.30;;;21.20;44.00;;;;;;5006744;28;20445;-80
2023/05/31 03:52:43;;;;;;;4.50;4.10;;;21.10;44.10;;;;;;5007711;28;20453;-82
2023/05/31 03:55:12;;;;;;;4.70;4.30;;;21.20;44.10;;;;;;5006409;28;20469;-82
2023/05/31 03:57:40;;;;;;;4.33;3.93;;;21.10;44.10;;;;;;5012116;28;20472;-81
2023/05/31 04:00:10;;;;;;;3.87;3.57;;;21.20;44.10;;;;;;5008645;28;20445;-81
2023/05/31 04:02:40;;;;;;;5.63;4.00;;;21.20;44.10;;;;;;5011836;28;20534;-81
2023/05/31 04:05:22;;;;;;;3.77;3.50;;;21.20;44.20;;;;;;5006900;28;20554;-83
2023/05/31 04:07:51;;;;;;;4.70;4.30;;;21.20;44.20;;;;;;5006197;28;20460;-81
2023/05/31 04:10:19;;;;;;;4.07;3.70;;;21.20;44.30;;;;;;5011054;28;20444;-82
2023/05/31 04:12:47;;;;;;;4.10;3.70;;;21.20;44.20;;;;;;5009277;28;20445;-81
2023/05/31 04:15:15;;;;;;;4.07;3.70;;;21.20;44.30;;;;;;5010233;28;20453;-82
2023/05/31 04:17:45;;;;;;;4.43;4.03;;;21.20;44.30;;;;;;4999878;28;20469;-83
2023/05/31 04:20:13;;;;;;;4.67;3.97;;;21.20;44.20;;;;;;5008118;28;20429;-81
2023/05/31 04:22:41;;;;;;;4.20;3.90;;;21.20;44.20;;;;;;5009396;28;20532;-81
2023/05/31 04:25:12;;;;;;;4.00;3.60;;;21.20;44.40;;;;;;5010900;28;20465;-82
2023/05/31 04:27:41;;;;;;;3.97;3.67;;;21.20;44.30;;;;;;5010565;28;20480;-81
2023/05/31 04:30:09;;;;;;;4.00;3.70;;;21.20;44.90;;;;;;5012008;28;20441;-81
2023/05/31 04:32:38;;;;;;;3.03;2.83;;;21.20;44.40;;;;;;5002424;28;20437;-81
2023/05/31 04:35:08;;;;;;;5.10;3.57;;;21.20;44.30;;;;;;5009436;28;20477;-83
2023/05/31 04:37:37;;;;;;;3.60;3.33;;;21.30;44.40;;;;;;5010126;28;20469;-81
2023/05/31 04:40:09;;;;;;;3.93;3.27;;;21.30;44.40;;;;;;5007779;28;20597;-80
2023/05/31 04:42:38;;;;;;;4.27;3.60;;;21.30;44.30;;;;;;4998490;28;20481;-83
2023/05/31 04:45:07;;;;;;;4.07;3.23;;;21.30;44.30;;;;;;5005605;28;20501;-83
2023/05/31 04:47:35;;;;;;;4.50;3.13;;;21.30;44.30;;;;;;5001989;28;20450;-80
2023/05/31 04:50:04;;;;;;;3.80;3.50;;;21.30;44.30;;;;;;5006921;28;20445;-83
2023/05/31 04:52:33;;;;;;;4.07;3.77;;;21.30;44.40;;;;;;5007203;28;20532;-82
2023/05/31 04:55:01;;;;;;;4.00;3.60;;;21.30;44.20;;;;;;5010816;28;20506;-81
2023/05/31 04:57:30;;;;;;;4.97;3.80;;;21.30;44.30;;;;;;5010021;28;20477;-81
2023/05/31 05:00:00;;;;;;;4.03;3.37;;;21.30;44.20;;;;;;5008908;28;20472;-81
2023/05/31 05:02:28;;;;;;;3.97;3.57;;;21.40;44.30;;;;;;5010677;28;20509;-81
2023/05/31 05:04:57;;;;;;;4.00;3.60;;;21.40;44.20;;;;;;5010486;28;20472;-81
2023/05/31 05:07:25;;;;;;;3.77;3.43;;;21.40;44.40;;;;;;5009373;28;20438;-81
2023/05/31 05:09:55;;;;;;;5.10;3.53;;;21.40;44.30;;;;;;5008854;28;21012;-80
2023/05/31 05:12:23;;;;;;;3.23;3.03;;;21.40;44.20;;;;;;5004073;28;20449;-81
2023/05/31 05:14:51;;;;;;;3.23;3.03;;;21.40;44.20;;;;;;5002118;28;20470;-83
2023/05/31 05:17:20;;;;;;;4.33;3.30;;;21.50;44.30;;;;;;5009171;28;20446;-81
2023/05/31 05:19:48;;;;;;;3.00;2.80;;;21.50;44.20;;;;;;4999656;28;20508;-82
2023/05/31 05:22:16;;;;;;;3.87;3.43;;;21.50;44.30;;;;;;5003177;28;20480;-82
2023/05/31 05:24:45;;;;;;;3.70;3.40;;;21.50;44.20;;;;;;4999712;28;20462;-82
2023/05/31 05:27:14;;;;;;;3.07;2.87;;;21.50;44.40;;;;;;5002731;28;20445;-81
2023/05/31 05:29:42;;;;;;;2.83;2.70;;;21.50;44.20;;;;;;5007600;28;20489;-82
2023/05/31 05:32:11;;;;;;;3.30;3.00;;;21.50;44.20;;;;;;5008813;28;20491;-82
2023/05/31 05:34:39;;;;;;;5.30;3.60;;;21.50;44.10;;;;;;5007319;28;20477;-82
2023/05/31 05:37:08;;;;;;;3.10;2.90;;;21.60;44.10;;;;;;5010331;28;20435;-83
2023/05/31 05:39:36;;;;;;;3.87;3.20;;;21.50;44.10;;;;;;5010100;28;20473;-81
2023/05/31 05:42:04;;;;;;;4.37;3.20;;;21.60;44.20;;;;;;5010117;28;20453;-83
2023/05/31 05:44:34;;;;;;;3.80;3.50;;;21.60;44.30;;;;;;5003559;28;20469;-82
2023/05/31 05:47:02;;;;;;;3.43;3.17;;;21.60;44.00;;;;;;4997409;28;20453;-81
2023/05/31 05:49:30;;;;;;;3.33;3.13;;;21.60;44.20;;;;;;4999217;28;20441;-83
2023/05/31 05:51:58;;;;;;;3.00;2.80;;;21.70;44.20;;;;;;5008820;28;20445;-83
2023/05/31 05:54:26;;;;;;;3.40;3.10;;;21.70;44.10;;;;;;4998782;28;20449;-81
2023/05/31 05:56:54;;;;;;;3.27;3.07;;;21.70;44.10;;;;;;5000821;28;20481;-81
2023/05/31 05:59:22;;;;;;;6.10;2.87;;;21.70;44.10;;;;;;5006582;28;20481;-83
2023/05/31 06:01:52;;;;;;;3.40;3.10;;;21.70;44.20;;;;;;5004850;28;20446;-82
2023/05/31 06:04:20;;;;;;;3.20;3.00;;;21.70;44.20;;;;;;5005495;28;20445;-81
2023/05/31 06:06:48;;;;;;;3.53;2.93;;;21.80;44.10;;;;;;5010160;28;20453;-81
2023/05/31 06:09:16;;;;;;;3.00;2.80;;;21.80;44.10;;;;;;5011495;28;20464;-83
2023/05/31 06:11:44;;;;;;;3.00;2.90;;;21.80;44.10;;;;;;5006905;28;20465;-82
2023/05/31 06:14:13;;;;;;;3.10;2.80;;;21.80;44.00;;;;;;5003310;28;20420;-82
2023/05/31 06:16:41;;;;;;;3.00;2.80;;;21.80;44.20;;;;;;5009964;28;20541;-82
2023/05/31 06:19:10;;;;;;;3.40;3.10;;;21.90;44.00;;;;;;5007748;28;20516;-82
2023/05/31 06:21:39;;;;;;;3.67;3.33;;;21.90;44.00;;;;;;5002064;28;20449;-79
2023/05/31 06:24:07;;;;;;;3.90;2.77;;;21.90;44.10;;;;;;5008717;28;20457;-82
2023/05/31 06:26:36;;;;;;;3.30;3.00;;;22.00;44.10;;;;;;5008993;28;20504;-82
2023/05/31 06:29:04;;;;;;;4.57;2.83;;;22.00;44.00;;;;;;5007466;28;20449;-82
2023/05/31 06:31:32;;;;;;;2.97;2.70;;;22.00;43.90;;;;;;5005567;28;20437;-83
2023/05/31 06:34:00;;;;;;;3.77;2.77;;;22.10;44.00;;;;;;5008022;28;20445;-82
2023/05/31 06:36:30;;;;;;;3.10;2.87;;;22.10;43.80;;;;;;5009257;28;20551;-83
2023/05/31 06:38:58;;;;;;;2.60;2.50;;;22.10;43.90;;;;;;5012742;28;20465;-81
2023/05/31 06:41:26;;;;;;;2.80;2.60;;;22.20;43.80;;;;;;5011193;28;20452;-83
2023/05/31 06:43:54;;;;;;;3.23;2.93;;;22.30;43.90;;;;;;5010482;28;20450;-81
2023/05/31 06:46:22;;;;;;;2.60;2.50;;;22.30;43.70;;;;;;5008776;28;20496;-82
2023/05/31 06:48:51;;;;;;;2.90;2.70;;;22.30;43.70;;;;;;5003782;28;20449;-82
2023/05/31 06:51:39;;;;;;;3.20;3.00;;;22.40;43.80;;;;;;5005354;28;20452;-81
2023/05/31 06:54:07;;;;;;;2.80;2.60;;;22.50;43.70;;;;;;5012749;28;20445;-82
2023/05/31 06:56:35;;;;;;;2.87;2.77;;;22.50;43.60;;;;;;5013104;28;20429;-82
2023/05/31 06:59:03;;;;;;;2.93;2.73;;;22.60;43.40;;;;;;5010802;28;20496;-79
2023/05/31 07:01:31;;;;;;;2.90;2.70;;;22.60;43.50;;;;;;5011672;28;20453;-80
2023/05/31 07:03:59;;;;;;;2.60;2.50;;;22.70;43.60;;;;;;5011778;28;20440;-80
2023/05/31 07:06:29;;;;;;;2.80;2.70;;;22.80;43.50;;;;;;5012019;28;20464;-81
2023/05/31 07:08:58;;;;;;;2.50;2.40;;;22.80;43.50;;;;;;5010349;28;20470;-81
2023/05/31 07:11:26;;;;;;;3.17;2.97;;;22.90;43.50;;;;;;5011744;28;20511;-78
2023/05/31 07:13:59;;;;;;;2.90;2.70;;;22.90;43.40;;;;;;5007332;28;20436;-81
2023/05/31 07:16:27;;;;;;;2.90;2.70;;;23.00;43.40;;;;;;5010503;28;20465;-81
2023/05/31 07:18:56;;;;;;;3.30;2.97;;;23.00;43.40;;;;;;5008796;28;20462;-80
2023/05/31 07:21:24;;;;;;;2.77;2.67;;;23.10;43.60;;;;;;5006285;28;20416;-80
2023/05/31 07:23:52;;;;;;;2.90;2.70;;;23.20;43.60;;;;;;4997781;28;20444;-80
2023/05/31 07:26:22;;;;;;;2.83;2.63;;;23.40;43.50;;;;;;5011700;28;20458;-81
2023/05/31 07:28:52;;;;;;;2.63;2.43;;;23.40;43.40;;;;;;5006884;28;20480;-80
2023/05/31 07:31:21;;;;;;;2.77;2.57;;;23.50;43.40;;;;;;5006029;28;20449;-79
2023/05/31 07:33:49;;;;;;;2.80;2.60;;;23.70;43.40;;;;;;5011149;28;20445;-81
2023/05/31 07:36:18;;;;;;;2.70;2.60;;;23.80;43.40;;;;;;5008910;28;20504;-77
2023/05/31 07:38:46;;;;;;;2.80;2.60;;;23.90;43.20;;;;;;4996171;28;20549;-77
2023/05/31 07:41:15;;;;;;;2.77;2.57;;;24.00;43.20;;;;;;4987727;28;20483;-78
2023/05/31 07:43:44;;;;;;;2.83;2.73;;;24.20;43.20;;;;;;4992363;28;20507;-77
2023/05/31 07:46:12;;;;;;;2.70;2.50;;;24.30;43.10;;;;;;4993139;28;20511;-77
2023/05/31 07:48:40;;;;;;;2.70;2.50;;;24.40;43.10;;;;;;4993482;28;20412;-77
2023/05/31 07:51:09;;;;;;;2.67;2.57;;;24.60;43.00;;;;;;4988601;28;20413;-77
2023/05/31 07:53:37;;;;;;;2.40;2.30;;;24.70;42.90;;;;;;4991572;28;20478;-77
2023/05/31 07:56:06;;;;;;;2.67;2.47;;;24.80;42.80;;;;;;4994776;28;20579;-78
2023/05/31 07:58:34;;;;;;;2.63;2.53;;;25.00;42.80;;;;;;4992920;28;20954;-77
2023/05/31 08:01:04;;;;;;;2.17;2.07;;;25.10;42.80;;;;;;4987759;28;20484;-78
2023/05/31 08:03:33;;;;;;;2.40;2.20;;;25.20;42.60;;;;;;4994306;28;20519;-78
2023/05/31 08:06:01;;;;;;;2.70;2.50;;;25.40;42.60;;;;;;4986925;28;20471;-77
2023/05/31 08:08:32;;;;;;;2.70;2.50;;;25.50;42.50;;;;;;4994233;28;20459;-77
2023/05/31 08:11:00;;;;;;;2.53;2.33;;;25.70;42.40;;;;;;4987856;28;20441;-77
2023/05/31 08:13:30;;;;;;;2.40;2.30;;;25.80;42.30;;;;;;4993633;28;20420;-76
2023/05/31 08:15:58;;;;;;;2.70;2.50;;;25.90;42.20;;;;;;4994003;28;20440;-77
2023/05/31 08:18:27;;;;;;;2.70;2.50;;;26.10;42.20;;;;;;4992997;28;20576;-78
2023/05/31 08:20:56;;;;;;;2.13;2.03;;;26.20;42.00;;;;;;4986940;28;20483;-78
2023/05/31 08:26:08;;;;;;;2.33;2.23;;;26.50;41.80;;;;;;4985726;28;20507;-78
2023/05/31 08:28:36;;;;;;;2.83;2.63;;;26.70;41.80;;;;;;4992198;28;20453;-77
2023/05/31 08:31:05;;;;;;;2.10;2.00;;;26.80;41.70;;;;;;4982765;28;20454;-78
2023/05/31 08:33:35;;;;;;;2.40;2.30;;;27.00;41.70;;;;;;4993142;28;20474;-78
2023/05/31 08:36:04;;;;;;;2.10;2.00;;;27.10;41.50;;;;;;4993535;28;20448;-78
2023/05/31 08:38:34;;;;;;;2.40;2.30;;;27.30;41.40;;;;;;4993351;28;20423;-78
2023/05/31 08:41:05;;;;;;;2.27;2.17;;;27.40;41.30;;;;;;4993373;28;20535;-78
2023/05/31 08:43:34;;;;;;;2.40;2.30;;;27.60;41.20;;;;;;4991451;28;20544;-78
2023/05/31 08:46:02;;;;;;;2.43;2.33;;;27.70;41.00;;;;;;4996904;28;20448;-78
2023/05/31 08:48:34;;;;;;;2.20;2.10;;;27.90;41.00;;;;;;4994914;28;20929;-78
2023/05/31 08:51:06;;;;;;;2.27;2.17;;;28.10;40.80;;;;;;4994913;28;20442;-78
2023/05/31 08:53:34;;;;;;;2.00;1.90;;;28.20;40.70;;;;;;4994291;28;20449;-79
2023/05/31 08:56:03;;;;;;;2.20;2.10;;;28.30;40.60;;;;;;4993466;28;20465;-78
2023/05/31 08:58:31;;;;;;;2.30;2.20;;;28.40;40.50;;;;;;4987789;28;20460;-80
2023/05/31 09:00:59;;;;;;;2.37;2.17;;;28.60;40.40;;;;;;4995584;28;20508;-80
2023/05/31 09:03:27;;;;;;;2.87;2.60;;;28.70;40.40;;;;;;4995376;28;20428;-79
2023/05/31 09:05:55;;;;;;;2.33;2.23;;;28.90;40.30;;;;;;4980377;28;20481;-78
2023/05/31 09:08:25;;;;;;;4.40;2.97;;;29.10;40.20;;;;;;4992971;28;20467;-78
2023/05/31 09:10:53;;;;;;;2.10;2.00;;;29.20;40.10;;;;;;4993930;28;20451;-79
2023/05/31 09:13:21;;;;;;;2.03;1.90;;;29.40;40.00;;;;;;4996002;28;20552;-80
2023/05/31 09:15:50;;;;;;;2.20;2.10;;;29.60;39.80;;;;;;4998142;28;20472;-79
2023/05/31 09:18:20;;;;;;;1.93;1.83;;;29.70;39.70;;;;;;4997427;28;20475;-80
2023/05/31 09:20:49;;;;;;;2.30;2.20;;;29.90;39.60;;;;;;4995625;28;20490;-80
2023/05/31 09:23:18;;;;;;;1.90;1.80;;;30.10;39.50;;;;;;4991501;28;20430;-79
2023/05/31 09:25:48;;;;;;;2.63;1.97;;;30.30;39.30;;;;;;4995908;28;20469;-80
2023/05/31 09:28:18;;;;;;;2.00;1.90;;;30.50;39.20;;;;;;4995682;28;20488;-78
2023/05/31 09:30:46;;;;;;;1.70;1.60;;;30.60;39.00;;;;;;4994888;28;20922;-79
2023/05/31 09:33:15;;;;;;;1.90;1.73;;;30.80;39.00;;;;;;4985967;28;20532;-77
2023/05/31 09:35:57;;;;;;;2.30;2.20;;;31.00;38.80;;;;;;4985572;28;20473;-78
2023/05/31 09:38:32;;;;;;;2.00;1.90;;;31.10;38.60;;;;;;4997231;28;20438;-79
2023/05/31 09:41:14;;;;;;;1.70;1.60;;;31.30;38.40;;;;;;4997052;28;20447;-79
2023/05/31 09:43:43;;;;;;;2.20;2.00;;;31.50;38.30;;;;;;4997482;28;20506;-79
2023/05/31 09:46:14;;;;;;;1.70;1.70;;;31.70;38.10;;;;;;4995602;28;20472;-79
2023/05/31 09:48:42;;;;;;;1.90;1.80;;;31.90;37.90;;;;;;4992387;28;20458;-78
2023/05/31 09:51:10;;;;;;;2.00;1.90;;;32.10;37.70;;;;;;4989971;28;20504;-79
2023/05/31 09:53:40;;;;;;;1.70;1.60;;;32.30;37.80;;;;;;4996336;28;20484;-79
2023/05/31 09:56:18;;;;;;;1.60;1.60;;;32.40;37.40;;;;;;4989196;28;20466;-79
2023/05/31 09:58:46;;;;;;;1.60;1.50;;;32.50;37.00;;;;;;4992228;28;20988;-79
2023/05/31 10:01:15;;;;;;;1.60;1.50;;;32.70;37.10;;;;;;4992583;28;20564;-78
2023/05/31 10:03:43;;;;;;;3.17;1.67;;;32.80;36.90;;;;;;4996095;28;20825;-79
2023/05/31 10:06:12;;;;;;;2.00;1.90;;;32.90;36.80;;;;;;4995747;28;20461;-79
2023/05/31 10:08:40;;;;;;;4.20;1.70;;;33.10;36.80;;;;;;4988079;28;20492;-79
2023/05/31 10:11:08;;;;;;;1.30;1.20;;;33.20;36.60;;;;;;4995658;28;20477;-79
2023/05/31 10:13:37;;;;;;;3.43;1.40;;;33.40;36.40;;;;;;4988015;28;20541;-79
2023/05/31 10:16:06;;;;;;;1.90;1.80;;;33.60;36.20;;;;;;4986465;28;20466;-79
2023/05/31 10:18:37;;;;;;;1.40;1.30;;;33.80;36.20;;;;;;4990255;28;20449;-80
2023/05/31 10:21:09;;;;;;;1.80;1.70;;;34.00;36.10;;;;;;4990626;28;20469;-80
2023/05/31 10:23:41;;;;;;;1.50;1.50;;;34.10;36.00;;;;;;4993675;28;20449;-80
2023/05/31 10:26:13;;;;;;;1.77;1.67;;;34.30;35.90;;;;;;4995280;28;20544;-79
2023/05/31 10:28:46;;;;;;;2.87;1.80;;;34.50;35.80;;;;;;4995033;28;20438;-79
2023/05/31 10:31:13;;;;;;;1.63;1.53;;;34.70;35.80;;;;;;4989787;28;20911;-78
2023/05/31 10:33:44;;;;;;;1.60;1.50;;;35.00;35.70;;;;;;4992054;28;20445;-78
2023/05/31 10:36:12;;;;;;;1.83;1.73;;;35.20;35.40;;;;;;4991150;28;20477;-77
2023/05/31 10:38:42;;;;;;;2.40;1.70;;;35.20;35.40;;;;;;4988261;28;20541;-78
2023/05/31 10:41:12;;;;;;;2.03;1.60;;;35.30;35.60;;;;;;4991737;28;20527;-78
2023/05/31 10:43:56;;;;;;;2.67;1.90;;;35.40;35.50;;;;;;4979971;28;20484;-78
2023/05/31 10:46:26;;;;;;;1.60;1.50;;;35.70;35.50;;;;;;4985390;28;20544;-78
2023/05/31 10:48:56;;;;;;;1.40;1.30;;;35.80;35.40;;;;;;4984552;28;20449;-78
2023/05/31 10:51:39;;;;;;;1.83;1.57;;;36.10;35.30;;;;;;4989636;28;20539;-78
2023/05/31 10:54:07;;;;;;;1.53;1.43;;;36.30;35.10;;;;;;4985756;28;20476;-79
2023/05/31 10:56:37;;;;;;;1.77;1.50;;;36.50;35.00;;;;;;4997111;28;20545;-78
2023/05/31 10:59:10;;;;;;;1.60;1.50;;;36.70;34.70;;;;;;4996190;28;20456;-80
2023/05/31 11:01:39;;;;;;;1.70;1.60;;;36.90;34.50;;;;;;5006984;28;20488;-80
2023/05/31 11:04:19;;;;;;;2.27;1.77;;;37.00;34.30;;;;;;4996139;28;20463;-78
2023/05/31 11:06:47;;;;;;;1.90;1.50;;;37.20;34.20;;;;;;4986289;28;20468;-77
2023/05/31 11:09:16;;;;;;;2.10;1.50;;;37.40;34.00;;;;;;4991378;28;20464;-78
2023/05/31 11:11:46;;;;;;;2.43;1.70;;;37.60;33.80;;;;;;4990360;28;20473;-77
2023/05/31 11:14:27;;;;;;;4.53;1.60;;;37.70;33.70;;;;;;4993053;28;20447;-78
2023/05/31 11:17:13;;;;;;;2.40;1.73;;;38.10;33.50;;;;;;4994818;28;20445;-81
2023/05/31 11:19:43;;;;;;;2.00;1.83;;;39.00;32.40;;;;;;4999244;28;20434;-81
2023/05/31 11:22:14;;;;;;;2.30;1.37;;;39.60;31.50;;;;;;5003299;28;20466;-81
2023/05/31 11:24:50;;;;;;;1.63;1.53;;;40.30;30.80;;;;;;5010836;28;20461;-81
2023/05/31 11:27:19;;;;;;;1.33;1.20;;;41.00;30.00;;;;;;5003832;28;20522;-81
2023/05/31 11:30:01;;;;;;;3.27;1.33;;;41.60;29.50;;;;;;4998439;28;20483;-84
2023/05/31 11:33:08;;;;;;;1.20;1.10;;;42.10;29.00;;;;;;5000620;28;20441;-82
2023/05/31 11:35:36;;;;;;;1.37;1.20;;;42.70;28.80;;;;;;4994300;28;20480;-83
2023/05/31 11:38:05;;;;;;;1.87;1.10;;;43.40;28.00;;;;;;4990859;28;20495;-83
2023/05/31 11:40:35;;;;;;;1.20;1.20;;;43.80;27.50;;;;;;4996256;28;20472;-83
2023/05/31 11:43:06;;;;;;;1.47;1.37;;;44.10;27.20;;;;;;5000364;28;20449;-83
2023/05/31 11:45:41;;;;;;;1.20;1.10;;;44.60;26.90;;;;;;5001462;28;20472;-82
2023/05/31 11:48:39;;;;;;;2.70;1.20;;;44.90;26.60;;;;;;4999384;28;20449;-82
2023/05/31 11:51:07;;;;;;;1.73;1.40;;;45.20;26.30;;;;;;4996208;28;20445;-83
2023/05/31 11:53:35;;;;;;;1.00;1.00;;;45.50;26.00;;;;;;4993630;28;20555;-83
2023/05/31 11:56:03;;;;;;;1.60;1.50;;;45.70;26.00;;;;;;4995869;28;20465;-82
2023/05/31 11:58:31;;;;;;;2.57;1.30;;;45.80;25.80;;;;;;5002693;28;20456;-82
2023/05/31 12:01:01;;;;;;;2.23;1.23;;;45.90;25.50;;;;;;5002791;28;20475;-83
2023/05/31 12:03:30;;;;;;;2.00;1.10;;;46.10;25.40;;;;;;4998599;28;20445;-83
2023/05/31 12:06:00;;;;;;;1.33;1.00;;;46.40;25.40;;;;;;5007530;28;21051;-82
2023/05/31 12:08:28;;;;;;;1.27;1.17;;;46.50;25.30;;;;;;5002459;28;20473;-82
2023/05/31 12:11:06;;;;;;;1.77;1.30;;;46.40;25.20;;;;;;5001123;28;20455;-83
2023/05/31 12:13:34;;;;;;;1.10;1.10;;;46.30;25.30;;;;;;4999630;28;20472;-81
2023/05/31 12:16:05;;;;;;;1.20;1.10;;;46.40;25.30;;;;;;4997489;28;20468;-81
2023/05/31 12:18:35;;;;;;;1.57;1.27;;;46.30;25.50;;;;;;4996643;28;20433;-82
2023/05/31 12:21:11;;;;;;;1.00;1.00;;;46.00;25.70;;;;;;4996766;28;20444;-81
2023/05/31 12:24:02;;;;;;;1.30;1.30;;;45.70;25.90;;;;;;5002966;28;20460;-82
2023/05/31 12:26:31;;;;;;;2.00;1.57;;;45.40;26.20;;;;;;4992054;28;21048;-82
2023/05/31 12:28:59;;;;;;;2.63;1.47;;;45.30;26.10;;;;;;4989170;28;20436;-82
2023/05/31 12:31:31;;;;;;;2.30;1.33;;;45.00;26.40;;;;;;4997863;28;20460;-81
2023/05/31 12:34:00;;;;;;;5.40;1.43;;;44.80;26.50;;;;;;4994568;28;20449;-82
2023/05/31 12:36:28;;;;;;;4.10;1.20;;;44.50;26.80;;;;;;4994706;28;20508;-83
2023/05/31 12:38:56;;;;;;;1.40;1.30;;;44.20;27.00;;;;;;4993110;28;20540;-82
2023/05/31 12:41:25;;;;;;;2.10;1.20;;;43.90;26.90;;;;;;4989306;28;20556;-82
2023/05/31 12:43:55;;;;;;;1.57;1.10;;;43.70;27.20;;;;;;4980742;28;20452;-83
2023/05/31 12:46:23;;;;;;;2.80;1.17;;;43.50;27.30;;;;;;4995237;28;20568;-82
2023/05/31 12:48:52;;;;;;;1.43;1.33;;;43.30;27.80;;;;;;4995289;28;20449;-82
2023/05/31 12:51:22;;;;;;;1.37;1.27;;;43.10;27.60;;;;;;4996913;28;20445;-82
2023/05/31 12:53:50;;;;;;;1.93;1.60;;;42.90;27.90;;;;;;4990616;28;20840;-82
2023/05/31 12:56:18;;;;;;;1.50;1.40;;;42.50;28.20;;;;;;4996268;28;20473;-83
2023/05/31 12:58:46;;;;;;;2.70;1.33;;;42.10;29.00;;;;;;4990152;28;20473;-82
2023/05/31 13:01:14;;;;;;;1.53;1.43;;;41.90;28.30;;;;;;4985976;28;20469;-82
2023/05/31 13:03:42;;;;;;;3.07;1.63;;;41.70;28.60;;;;;;4991647;28;20457;-82